Time;durP1;ratioP1;P1;durP2;ratioP2;P2;SDS_P1;SDS_P2;PMS_P1;PMS_P2;Temp;Humidity;BMP_temperature;BMP_pressure;BME280_temperature;BME280_humidity;BME280_pressure;Samples;Min_cycle;Max_cycle;Signal;HPM_P1;HPM_P2
2024/03/04 00:00:54;;;;;;;4.37;2.60;;;8.30;10.80;;;;;;5080186;28;20203;-85
2024/03/04 00:03:20;;;;;;;4.37;2.63;;;8.40;11.10;;;;;;5076954;28;20184;-87
2024/03/04 00:05:46;;;;;;;3.20;2.50;;;8.30;9.90;;;;;;5080226;28;20175;-88
2024/03/04 00:08:11;;;;;;;4.70;2.30;;;8.40;8.50;;;;;;5090420;28;20740;-87
2024/03/04 00:10:37;;;;;;;3.20;2.40;;;8.30;8.50;;;;;;5079406;28;20590;-88
2024/03/04 00:13:03;;;;;;;4.73;2.70;;;8.30;9.80;;;;;;5085166;28;20206;-87
2024/03/04 00:15:29;;;;;;;4.23;2.60;;;8.40;6.20;;;;;;5088175;28;20191;-84
2024/03/04 00:17:54;;;;;;;3.83;2.87;;;8.50;4.10;;;;;;5093360;28;20217;-86
2024/03/04 00:20:20;;;;;;;3.40;2.80;;;8.60;3.80;;;;;;5097390;28;20194;-85
2024/03/04 00:22:47;;;;;;;5.30;2.77;;;8.60;3.50;;;;;;5093723;28;20172;-94
2024/03/04 00:25:16;;;;;;;3.73;2.80;;;8.60;1.80;;;;;;5093331;28;20234;-85
2024/03/04 00:27:49;;;;;;;5.63;3.50;;;8.70;2.00;;;;;;5091996;28;20207;-86
2024/03/04 00:30:15;;;;;;;6.23;3.70;;;8.80;3.20;;;;;;5093270;28;20255;-87
2024/03/04 00:32:40;;;;;;;6.67;3.60;;;8.60;7.00;;;;;;5092467;28;20599;-87
2024/03/04 00:35:09;;;;;;;4.57;3.50;;;8.60;12.10;;;;;;5092383;28;20179;-87
2024/03/04 00:37:35;;;;;;;4.20;3.33;;;8.40;15.50;;;;;;5091979;28;20172;-86
2024/03/04 00:40:05;;;;;;;6.10;3.13;;;8.40;18.70;;;;;;5093359;28;20183;-86
2024/03/04 00:42:32;;;;;;;5.10;4.00;;;8.50;19.10;;;;;;5093286;28;20209;-87
2024/03/04 00:44:59;;;;;;;4.00;3.53;;;8.40;21.50;;;;;;5091369;28;20168;-87
2024/03/04 00:47:25;;;;;;;5.93;3.87;;;8.40;25.90;;;;;;5091965;28;20199;-86
2024/03/04 00:49:51;;;;;;;5.07;4.00;;;8.30;29.90;;;;;;5091814;28;20543;-87
2024/03/04 00:52:17;;;;;;;5.53;4.07;;;8.40;31.10;;;;;;5094311;28;20178;-86
2024/03/04 00:54:45;;;;;;;6.53;4.23;;;8.30;30.60;;;;;;5093961;28;20172;-88
2024/03/04 00:57:11;;;;;;;4.87;4.17;;;8.30;31.50;;;;;;5091441;28;20512;-87
2024/03/04 00:59:37;;;;;;;5.83;4.77;;;8.40;32.60;;;;;;5090052;28;20182;-85
2024/03/04 01:02:05;;;;;;;5.30;4.27;;;8.30;33.40;;;;;;5092752;28;20258;-86
2024/03/04 01:04:31;;;;;;;6.13;4.30;;;8.30;32.30;;;;;;5097796;28;20179;-86
2024/03/04 01:06:57;;;;;;;5.50;4.30;;;8.50;34.70;;;;;;5097517;28;20180;-87
2024/03/04 01:09:23;;;;;;;6.97;4.63;;;8.30;37.00;;;;;;5104381;28;20182;-86
2024/03/04 01:11:48;;;;;;;6.03;4.50;;;8.20;38.80;;;;;;5114957;28;20190;-85
2024/03/04 01:14:14;;;;;;;6.73;5.07;;;8.30;42.70;;;;;;5111315;28;20250;-86
2024/03/04 01:16:43;;;;;;;5.40;4.80;;;8.10;45.70;;;;;;5098310;28;20178;-85
2024/03/04 01:19:10;;;;;;;6.63;4.77;;;8.10;47.40;;;;;;5097297;28;20182;-86
2024/03/04 01:21:35;;;;;;;7.07;5.53;;;8.20;46.40;;;;;;5096115;28;20172;-87
2024/03/04 01:24:02;;;;;;;5.80;4.47;;;8.20;46.90;;;;;;5095828;28;20176;-85
2024/03/04 01:26:28;;;;;;;5.60;5.00;;;8.20;48.70;;;;;;5094580;28;20172;-86
2024/03/04 01:28:54;;;;;;;6.70;5.20;;;8.10;47.40;;;;;;5095195;28;20591;-86
2024/03/04 01:31:21;;;;;;;7.13;4.93;;;8.30;44.60;;;;;;5094359;28;20565;-86
2024/03/04 01:33:49;;;;;;;6.33;5.47;;;8.20;42.80;;;;;;5095380;28;20218;-86
2024/03/04 01:36:15;;;;;;;6.43;4.93;;;8.20;43.90;;;;;;5095085;28;20164;-85
2024/03/04 01:38:42;;;;;;;7.00;5.30;;;8.20;41.70;;;;;;5094076;28;20171;-86
2024/03/04 01:41:07;;;;;;;7.60;5.33;;;8.20;39.10;;;;;;5095760;28;20264;-83
2024/03/04 01:43:33;;;;;;;6.93;5.37;;;8.40;35.60;;;;;;5098663;28;20175;-85
2024/03/04 01:45:59;;;;;;;7.60;5.20;;;8.30;34.70;;;;;;5099406;28;20155;-85
2024/03/04 01:48:26;;;;;;;7.37;5.23;;;8.40;35.40;;;;;;5095546;28;20302;-86
2024/03/04 01:50:54;;;;;;;6.83;5.30;;;8.40;38.50;;;;;;5095208;28;20163;-86
2024/03/04 01:53:22;;;;;;;8.03;5.23;;;8.30;41.40;;;;;;5095285;28;20168;-85
2024/03/04 01:56:00;;;;;;;7.97;5.07;;;8.40;35.80;;;;;;5094731;28;20179;-88
2024/03/04 01:58:27;;;;;;;6.10;5.50;;;8.40;38.20;;;;;;5095242;28;20632;-86
2024/03/04 02:00:54;;;;;;;10.20;5.07;;;8.60;31.30;;;;;;5093371;28;20186;-86
2024/03/04 02:03:21;;;;;;;7.43;5.33;;;8.40;28.90;;;;;;5094800;28;20190;-86
2024/03/04 02:05:48;;;;;;;7.37;5.70;;;8.50;28.50;;;;;;5094640;28;20172;-86
2024/03/04 02:08:16;;;;;;;7.60;6.23;;;8.50;27.30;;;;;;5094773;28;20247;-85
2024/03/04 02:10:42;;;;;;;8.40;5.97;;;8.50;26.70;;;;;;5095292;28;20176;-87
2024/03/04 02:13:08;;;;;;;8.53;6.13;;;8.60;26.70;;;;;;5093907;28;20171;-91
2024/03/04 02:15:40;;;;;;;9.23;6.57;;;8.40;28.50;;;;;;5093087;28;20170;-86
2024/03/04 02:18:06;;;;;;;8.57;6.83;;;8.60;28.40;;;;;;5093831;28;20171;-85
2024/03/04 02:20:43;;;;;;;8.83;6.10;;;8.60;29.90;;;;;;5094435;28;20171;-85
2024/03/04 02:23:11;;;;;;;7.10;6.17;;;8.50;34.30;;;;;;5094157;28;20171;-90
2024/03/04 02:25:38;;;;;;;8.70;6.73;;;8.30;37.10;;;;;;5094100;28;20259;-85
2024/03/04 02:28:06;;;;;;;7.90;6.60;;;8.30;40.20;;;;;;5093786;28;20290;-87
2024/03/04 02:30:33;;;;;;;8.10;7.30;;;8.30;41.50;;;;;;5093726;28;20585;-87
2024/03/04 02:33:04;;;;;;;7.90;7.03;;;8.60;36.00;;;;;;5093950;28;20285;-85
2024/03/04 02:35:34;;;;;;;9.50;7.40;;;8.60;24.60;;;;;;5093117;28;20168;-85
2024/03/04 02:38:02;;;;;;;8.93;7.97;;;8.80;19.30;;;;;;5093664;28;20178;-85
2024/03/04 02:40:28;;;;;;;7.53;6.73;;;8.60;22.50;;;;;;5092934;28;20271;-86
2024/03/04 02:42:53;;;;;;;9.43;7.87;;;8.70;23.20;;;;;;5093730;28;20817;-86
2024/03/04 02:45:19;;;;;;;8.17;7.33;;;8.60;22.20;;;;;;5093192;28;20180;-86
2024/03/04 02:47:45;;;;;;;7.60;6.80;;;8.40;25.50;;;;;;5094011;28;20211;-86
2024/03/04 02:50:10;;;;;;;8.33;7.43;;;8.50;29.50;;;;;;5095191;28;20172;-86
2024/03/04 02:52:36;;;;;;;7.33;6.57;;;8.50;29.30;;;;;;5093671;28;20217;-86
2024/03/04 02:55:04;;;;;;;8.87;7.33;;;8.80;24.70;;;;;;5092821;28;20184;-87
2024/03/04 02:57:31;;;;;;;7.83;7.03;;;8.60;22.50;;;;;;5093576;28;20168;-86
2024/03/04 02:59:56;;;;;;;9.57;8.10;;;8.60;25.20;;;;;;5093569;28;20194;-88
2024/03/04 03:02:22;;;;;;;8.63;7.63;;;8.60;25.30;;;;;;5093273;28;20176;-85
2024/03/04 03:04:48;;;;;;;10.33;7.73;;;8.60;23.50;;;;;;5093319;28;20168;-87
2024/03/04 03:07:13;;;;;;;8.20;7.33;;;8.40;27.50;;;;;;5111301;28;20746;-84
2024/03/04 03:09:39;;;;;;;8.87;7.83;;;8.20;33.60;;;;;;5107290;28;20171;-85
2024/03/04 03:12:05;;;;;;;9.57;8.57;;;8.30;33.70;;;;;;5095292;28;20767;-85
2024/03/04 03:14:35;;;;;;;9.20;8.20;;;8.30;38.00;;;;;;5092785;28;20175;-88
2024/03/04 03:17:00;;;;;;;10.13;8.90;;;8.30;36.10;;;;;;5093845;28;20168;-86
2024/03/04 03:19:27;;;;;;;9.30;8.30;;;8.40;36.70;;;;;;5092572;28;20539;-85
2024/03/04 03:21:53;;;;;;;9.27;8.23;;;8.50;39.30;;;;;;5093047;28;20254;-86
2024/03/04 03:24:19;;;;;;;9.63;8.53;;;8.40;39.60;;;;;;5092808;28;20168;-86
2024/03/04 03:26:46;;;;;;;8.80;7.77;;;8.50;35.90;;;;;;5092728;28;20178;-85
2024/03/04 03:29:12;;;;;;;9.70;8.20;;;8.60;37.10;;;;;;5093101;28;20203;-91
2024/03/04 03:31:38;;;;;;;9.93;8.93;;;8.50;33.90;;;;;;5093131;28;20723;-85
2024/03/04 03:34:04;;;;;;;9.97;8.97;;;8.30;32.10;;;;;;5092280;28;20241;-85
2024/03/04 03:36:30;;;;;;;11.63;8.77;;;8.50;36.40;;;;;;5092943;28;20277;-88
2024/03/04 03:38:56;;;;;;;9.60;8.60;;;8.40;34.00;;;;;;5091447;28;20189;-87
2024/03/04 03:41:22;;;;;;;9.77;8.33;;;8.30;42.20;;;;;;5092936;28;20719;-85
2024/03/04 03:43:48;;;;;;;12.80;9.10;;;8.10;45.50;;;;;;5092872;28;20587;-87
2024/03/04 03:46:14;;;;;;;12.70;8.80;;;8.20;48.90;;;;;;5092224;28;20271;-86
2024/03/04 03:48:43;;;;;;;10.57;9.10;;;8.20;48.50;;;;;;5092790;28;20290;-86
2024/03/04 03:51:08;;;;;;;11.00;9.47;;;8.30;49.80;;;;;;5092692;28;20172;-86
2024/03/04 03:53:34;;;;;;;9.57;8.57;;;8.60;47.00;;;;;;5093606;28;20186;-85
2024/03/04 03:56:04;;;;;;;10.53;9.37;;;8.70;40.60;;;;;;5091800;28;20414;-87
2024/03/04 03:58:29;;;;;;;9.73;8.83;;;8.60;35.20;;;;;;5092402;28;20168;-87
2024/03/04 04:00:55;;;;;;;9.73;8.73;;;8.60;37.00;;;;;;5092349;28;20187;-87
2024/03/04 04:03:21;;;;;;;9.20;8.30;;;8.50;37.50;;;;;;5092750;28;20182;-90
2024/03/04 04:05:47;;;;;;;10.97;8.57;;;8.30;39.90;;;;;;5091825;28;20545;-86
2024/03/04 04:08:14;;;;;;;9.73;8.70;;;8.30;44.70;;;;;;5091345;28;20297;-86
2024/03/04 04:10:40;;;;;;;11.80;9.30;;;8.20;49.30;;;;;;5092000;28;20191;-86
2024/03/04 04:13:06;;;;;;;9.63;8.63;;;8.30;52.40;;;;;;5091554;28;20175;-87
2024/03/04 04:15:32;;;;;;;10.87;9.80;;;8.20;52.20;;;;;;5091739;28;20178;-87
2024/03/04 04:17:58;;;;;;;10.87;9.80;;;8.20;54.20;;;;;;5092199;28;20258;-87
2024/03/04 04:20:25;;;;;;;10.77;9.67;;;8.20;56.50;;;;;;5091686;28;20264;-86
2024/03/04 04:22:52;;;;;;;10.97;9.77;;;8.30;56.90;;;;;;5091797;28;20176;-87
2024/03/04 04:25:17;;;;;;;12.10;10.97;;;8.30;56.10;;;;;;5091931;28;20168;-87
2024/03/04 04:27:45;;;;;;;11.43;10.33;;;8.20;54.40;;;;;;5090991;28;20667;-91
2024/03/04 04:30:11;;;;;;;12.67;11.40;;;8.20;55.90;;;;;;5092305;28;20190;-86
2024/03/04 04:32:37;;;;;;;11.83;10.63;;;8.00;58.30;;;;;;5091825;28;20171;-84
2024/03/04 04:35:04;;;;;;;12.83;11.63;;;8.00;63.90;;;;;;5093921;28;20227;-84
2024/03/04 04:37:30;;;;;;;15.40;12.00;;;7.80;66.10;;;;;;5098035;28;20179;-83
2024/03/04 04:39:57;;;;;;;14.67;12.00;;;7.80;71.70;;;;;;5099585;28;20192;-85
2024/03/04 04:42:23;;;;;;;14.43;12.93;;;7.70;76.80;;;;;;5098359;28;20221;-84
2024/03/04 04:44:49;;;;;;;14.00;12.60;;;7.90;81.30;;;;;;5095791;28;20171;-85
2024/03/04 04:47:15;;;;;;;15.43;12.90;;;7.90;78.60;;;;;;5095568;28;20174;-86
2024/03/04 04:49:41;;;;;;;15.60;14.00;;;7.80;78.10;;;;;;5095151;28;20590;-87
2024/03/04 04:52:06;;;;;;;14.40;13.07;;;7.80;79.20;;;;;;5097181;28;20164;-85
2024/03/04 04:54:32;;;;;;;17.57;14.23;;;7.80;81.20;;;;;;5095533;28;20171;-85
2024/03/04 04:56:58;;;;;;;16.43;14.90;;;7.90;82.40;;;;;;5095996;28;20170;-87
2024/03/04 04:59:23;;;;;;;17.90;15.40;;;8.10;78.00;;;;;;5096558;28;20749;-84
2024/03/04 05:01:49;;;;;;;17.47;15.63;;;7.90;70.70;;;;;;5108381;28;20159;-85
2024/03/04 05:04:14;;;;;;;17.43;15.63;;;7.80;72.40;;;;;;5115179;28;20179;-85
2024/03/04 05:06:42;;;;;;;19.23;17.20;;;7.90;73.20;;;;;;5107454;28;20217;-84
2024/03/04 05:09:09;;;;;;;18.77;16.60;;;8.10;60.40;;;;;;5098241;28;20211;-84
2024/03/04 05:11:35;;;;;;;20.20;18.20;;;8.30;56.40;;;;;;5097804;28;20191;-90
2024/03/04 05:14:00;;;;;;;21.80;19.50;;;8.00;55.50;;;;;;5096247;28;20176;-91
2024/03/04 05:16:27;;;;;;;22.80;20.40;;;8.00;59.00;;;;;;5096259;28;20171;-90
2024/03/04 05:18:53;;;;;;;23.30;20.97;;;7.90;60.50;;;;;;5095921;28;20616;-87
2024/03/04 05:21:18;;;;;;;24.07;20.73;;;7.90;61.70;;;;;;5095091;28;20190;-86
2024/03/04 05:23:44;;;;;;;23.10;20.40;;;8.00;61.20;;;;;;5094673;28;20179;-86
2024/03/04 05:26:10;;;;;;;23.90;21.60;;;7.90;60.80;;;;;;5094972;28;20188;-86
2024/03/04 05:28:35;;;;;;;24.83;22.27;;;8.00;66.20;;;;;;5094793;28;20260;-87
2024/03/04 05:31:02;;;;;;;25.70;22.07;;;8.00;68.30;;;;;;5096241;28;20620;-85
2024/03/04 05:33:28;;;;;;;27.47;22.80;;;7.90;67.90;;;;;;5095432;28;20250;-86
2024/03/04 05:35:53;;;;;;;26.93;24.13;;;8.00;65.40;;;;;;5094245;28;20318;-85
2024/03/04 05:38:20;;;;;;;27.30;24.60;;;8.00;63.10;;;;;;5095103;28;20199;-90
2024/03/04 05:40:46;;;;;;;26.67;23.83;;;7.90;64.60;;;;;;5094964;28;20297;-85
2024/03/04 05:43:12;;;;;;;26.27;23.63;;;7.80;72.60;;;;;;5094535;28;20214;-91
2024/03/04 05:45:38;;;;;;;26.33;23.57;;;7.80;77.70;;;;;;5094499;28;20541;-87
2024/03/04 05:48:05;;;;;;;26.07;23.47;;;7.60;83.10;;;;;;5095286;28;20254;-88
2024/03/04 05:50:31;;;;;;;26.27;23.67;;;7.60;85.60;;;;;;5093329;28;20182;-89
2024/03/04 05:52:56;;;;;;;27.53;24.30;;;7.60;90.20;;;;;;5094795;28;20172;-86
2024/03/04 05:55:22;;;;;;;26.20;23.40;;;7.70;90.50;;;;;;5094930;28;20168;-89
2024/03/04 05:57:49;;;;;;;28.13;24.93;;;7.90;86.70;;;;;;5094194;28;20616;-87
2024/03/04 06:00:15;;;;;;;27.53;24.50;;;7.90;77.80;;;;;;5094616;28;20183;-86
2024/03/04 06:02:42;;;;;;;27.63;24.73;;;7.80;75.20;;;;;;5094321;28;20167;-86
2024/03/04 06:05:15;;;;;;;25.77;22.97;;;8.00;76.30;;;;;;5094925;28;20174;-86
2024/03/04 06:07:41;;;;;;;27.30;23.80;;;7.90;78.50;;;;;;5094206;28;20576;-92
2024/03/04 06:10:08;;;;;;;26.97;23.87;;;8.00;77.90;;;;;;5094255;28;20258;-86
2024/03/04 06:12:34;;;;;;;25.97;23.17;;;7.80;80.90;;;;;;5095473;28;20180;-89
2024/03/04 06:15:00;;;;;;;27.43;24.47;;;7.90;75.70;;;;;;5094578;28;20638;-86
2024/03/04 06:17:28;;;;;;;27.30;24.47;;;8.00;62.30;;;;;;5093393;28;20179;-87
2024/03/04 06:19:54;;;;;;;28.43;24.70;;;8.10;60.60;;;;;;5094269;28;20256;-87
2024/03/04 06:22:20;;;;;;;29.47;24.97;;;7.80;63.80;;;;;;5094663;28;20203;-87
2024/03/04 06:24:45;;;;;;;29.50;26.37;;;7.80;69.30;;;;;;5093803;28;20167;-85
2024/03/04 06:27:11;;;;;;;28.43;25.37;;;7.70;79.40;;;;;;5095907;28;20179;-86
2024/03/04 06:29:37;;;;;;;29.57;25.60;;;7.70;82.50;;;;;;5095103;28;20175;-84
2024/03/04 06:32:04;;;;;;;29.10;25.93;;;7.50;87.90;;;;;;5093852;28;20175;-86
2024/03/04 06:34:31;;;;;;;28.53;25.60;;;7.50;89.50;;;;;;5094371;28;20179;-86
2024/03/04 06:36:58;;;;;;;28.60;25.33;;;7.50;90.30;;;;;;5075580;28;20214;-86
2024/03/04 06:39:24;;;;;;;29.53;24.57;;;7.50;91.00;;;;;;5074365;28;20251;-84
2024/03/04 06:41:51;;;;;;;26.90;24.13;;;7.50;91.90;;;;;;5074220;28;20173;-88
2024/03/04 06:44:16;;;;;;;27.50;24.70;;;7.60;91.50;;;;;;5074018;28;20189;-85
2024/03/04 06:46:43;;;;;;;27.40;24.50;;;7.70;90.90;;;;;;5072840;28;20515;-85
2024/03/04 06:49:09;;;;;;;26.97;23.10;;;7.70;90.20;;;;;;5072638;28;20216;-86
2024/03/04 06:51:35;;;;;;;25.17;22.53;;;7.60;90.80;;;;;;5079895;28;20180;-84
2024/03/04 06:54:10;;;;;;;25.43;22.50;;;7.50;91.80;;;;;;5094400;28;20180;-86
2024/03/04 06:56:36;;;;;;;24.87;22.23;;;7.60;92.20;;;;;;5112991;28;20246;-85
2024/03/04 06:59:02;;;;;;;24.13;21.73;;;7.50;93.20;;;;;;5113209;28;20233;-89
2024/03/04 07:01:31;;;;;;;27.40;22.17;;;7.60;93.30;;;;;;5095458;28;20191;-88
2024/03/04 07:04:11;;;;;;;24.00;21.20;;;7.50;94.30;;;;;;5094504;28;20201;-87
2024/03/04 07:06:37;;;;;;;24.20;21.80;;;7.50;95.30;;;;;;5094186;28;20175;-90
2024/03/04 07:09:03;;;;;;;23.60;21.10;;;7.50;95.80;;;;;;5093835;28;20211;-89
2024/03/04 07:11:29;;;;;;;23.97;20.37;;;7.50;96.70;;;;;;5095050;28;20176;-90
2024/03/04 07:13:54;;;;;;;22.83;20.33;;;7.40;95.20;;;;;;5094252;28;20190;-90
2024/03/04 07:16:20;;;;;;;22.53;19.87;;;7.40;95.80;;;;;;5093229;28;20186;-89
2024/03/04 07:18:46;;;;;;;22.60;20.17;;;7.40;96.90;;;;;;5095525;28;20171;-90
2024/03/04 07:21:15;;;;;;;22.20;20.00;;;7.40;96.20;;;;;;5079577;28;20183;-88
2024/03/04 07:23:41;;;;;;;22.17;19.50;;;7.50;95.80;;;;;;5095179;28;20243;-92
2024/03/04 07:26:11;;;;;;;23.47;20.27;;;7.60;96.50;;;;;;5107019;28;20231;-91
2024/03/04 07:28:43;;;;;;;23.30;20.97;;;7.60;95.90;;;;;;5114344;28;20223;-90
2024/03/04 07:31:10;;;;;;;22.27;19.97;;;7.60;96.20;;;;;;5107276;28;20175;-92
2024/03/04 07:33:35;;;;;;;26.53;20.20;;;7.80;95.20;;;;;;5101064;28;20199;-92
2024/03/04 07:36:04;;;;;;;22.00;19.70;;;7.90;91.70;;;;;;5096352;28;20172;-92
2024/03/04 07:38:29;;;;;;;23.03;20.10;;;7.90;85.10;;;;;;5096860;28;20236;-92
2024/03/04 07:40:55;;;;;;;22.53;20.13;;;8.20;81.10;;;;;;5098342;28;20249;-92
2024/03/04 07:43:22;;;;;;;23.80;20.47;;;8.10;74.00;;;;;;5098397;28;20651;-88
2024/03/04 07:45:48;;;;;;;22.63;20.37;;;8.30;67.90;;;;;;5100572;28;20249;-91
2024/03/04 07:48:14;;;;;;;23.77;21.17;;;8.30;65.80;;;;;;5095423;28;20711;-92
2024/03/04 07:50:41;;;;;;;25.17;20.87;;;8.10;66.20;;;;;;5094803;28;20259;-92
2024/03/04 07:53:07;;;;;;;21.27;19.03;;;8.10;69.30;;;;;;5093985;28;20181;-91
2024/03/04 07:55:33;;;;;;;22.90;19.47;;;8.20;67.90;;;;;;5094721;28;20176;-89
2024/03/04 07:57:59;;;;;;;22.93;19.73;;;8.10;66.90;;;;;;5094494;28;20175;-89
2024/03/04 08:00:24;;;;;;;23.33;20.00;;;8.30;62.50;;;;;;5077755;28;20252;-89
2024/03/04 08:02:50;;;;;;;22.60;20.30;;;8.30;60.00;;;;;;5093441;28;20180;-89
2024/03/04 08:05:16;;;;;;;26.03;20.53;;;8.30;56.90;;;;;;5093770;28;20190;-91
2024/03/04 08:07:42;;;;;;;26.47;21.07;;;8.30;57.00;;;;;;5092061;28;20197;-90
2024/03/04 08:10:08;;;;;;;23.67;20.40;;;8.20;60.40;;;;;;5093997;28;20198;-93
2024/03/04 08:12:37;;;;;;;22.47;19.27;;;8.10;66.60;;;;;;5092706;28;20195;-91
2024/03/04 08:15:04;;;;;;;20.60;18.27;;;8.00;71.50;;;;;;5094250;28;20539;-90
2024/03/04 08:17:32;;;;;;;23.40;17.67;;;8.00;76.80;;;;;;5094945;28;20168;-89
2024/03/04 08:19:59;;;;;;;22.10;16.93;;;8.10;74.50;;;;;;5094503;28;20187;-92
2024/03/04 08:22:27;;;;;;;20.83;17.80;;;8.10;75.00;;;;;;5093534;28;20172;-87
2024/03/04 08:24:53;;;;;;;20.07;17.97;;;8.40;71.80;;;;;;5093649;28;20175;-89
2024/03/04 08:27:20;;;;;;;20.63;17.90;;;8.40;59.90;;;;;;5093673;28;20244;-90
2024/03/04 08:29:46;;;;;;;24.67;16.90;;;8.50;55.90;;;;;;5092956;28;20175;-91
2024/03/04 08:32:12;;;;;;;17.80;15.77;;;8.50;56.20;;;;;;5093375;28;20172;-91
2024/03/04 08:34:37;;;;;;;19.37;15.53;;;8.40;54.50;;;;;;5093210;28;20176;-91
2024/03/04 08:37:03;;;;;;;19.57;16.50;;;8.40;55.20;;;;;;5093328;28;20569;-91
2024/03/04 08:39:29;;;;;;;19.10;16.97;;;8.50;50.20;;;;;;5093250;28;20683;-90
2024/03/04 08:41:55;;;;;;;20.47;16.20;;;8.60;48.10;;;;;;5093341;28;20172;-89
2024/03/04 08:44:21;;;;;;;19.47;16.63;;;8.70;44.10;;;;;;5092915;28;20198;-90
2024/03/04 08:46:46;;;;;;;18.60;15.20;;;8.80;40.90;;;;;;5080181;28;20633;-90
2024/03/04 08:49:13;;;;;;;17.60;15.63;;;8.80;38.90;;;;;;5092888;28;20222;-90
2024/03/04 08:51:39;;;;;;;17.63;15.70;;;9.20;34.60;;;;;;5093032;28;20176;-92
2024/03/04 08:54:05;;;;;;;18.83;15.20;;;9.10;27.00;;;;;;5114480;28;20175;-90
2024/03/04 08:56:31;;;;;;;17.80;15.97;;;9.10;26.00;;;;;;5111314;28;20223;-90
2024/03/04 08:58:59;;;;;;;17.07;15.27;;;9.30;25.60;;;;;;5097600;28;20175;-90
2024/03/04 09:01:31;;;;;;;19.07;15.07;;;9.40;23.40;;;;;;5093079;28;20286;-90
2024/03/04 09:03:58;;;;;;;18.17;14.63;;;9.70;15.00;;;;;;5093317;28;20180;-89
2024/03/04 09:06:24;;;;;;;17.87;15.10;;;9.90;6.40;;;;;;5092625;28;20301;-90
2024/03/04 09:08:51;;;;;;;19.60;15.20;;;10.00;1.00;;;;;;5092785;28;20245;-90
2024/03/04 09:11:18;;;;;;;18.37;15.43;;;10.00;1.00;;;;;;5092290;28;20175;-91
2024/03/04 09:13:44;;;;;;;16.33;12.23;;;10.00;1.00;;;;;;5093055;28;20237;-90
2024/03/04 09:16:12;;;;;;;19.87;12.87;;;10.20;99.90;;;;;;5093475;28;20176;-91
2024/03/04 09:18:41;;;;;;;14.37;12.83;;;10.30;99.90;;;;;;5093625;28;20188;-91
2024/03/04 09:21:07;;;;;;;13.67;11.23;;;10.30;99.90;;;;;;5093193;28;20213;-92
2024/03/04 09:23:34;;;;;;;12.17;10.80;;;10.40;99.90;;;;;;5094059;28;20187;-92
2024/03/04 09:26:00;;;;;;;11.03;9.83;;;10.60;99.90;;;;;;5096562;28;20179;-91
2024/03/04 09:28:26;;;;;;;14.53;12.03;;;10.70;99.90;;;;;;5096449;28;20215;-90
2024/03/04 09:30:53;;;;;;;30.90;19.27;;;10.70;99.90;;;;;;5096687;28;20192;-91
2024/03/04 09:33:18;;;;;;;13.77;11.13;;;10.70;99.90;;;;;;5096796;28;20179;-90
2024/03/04 09:35:44;;;;;;;16.27;11.87;;;10.50;99.90;;;;;;5097241;28;20318;-91
2024/03/04 09:38:11;;;;;;;15.57;11.97;;;10.50;99.90;;;;;;5096634;28;20332;-91
2024/03/04 09:40:37;;;;;;;11.97;10.70;;;10.50;99.90;;;;;;5096471;28;20663;-89
2024/03/04 09:43:04;;;;;;;15.87;11.20;;;10.40;99.90;;;;;;5097981;28;20536;-90
2024/03/04 09:45:32;;;;;;;14.87;10.43;;;10.40;99.90;;;;;;5095826;28;20167;-89
2024/03/04 09:47:59;;;;;;;16.80;10.27;;;10.40;99.90;;;;;;5096157;28;20195;-91
2024/03/04 09:50:25;;;;;;;13.33;9.70;;;10.30;99.90;;;;;;5097032;28;20186;-91
2024/03/04 09:52:56;;;;;;;12.00;9.10;;;10.30;99.90;;;;;;5097544;28;20224;-91
2024/03/04 09:55:22;;;;;;;14.17;9.90;;;10.40;99.90;;;;;;5096627;28;20262;-89
2024/03/04 09:57:48;;;;;;;11.83;8.63;;;10.50;99.90;;;;;;5096003;28;20250;-91
2024/03/04 10:00:14;;;;;;;9.70;8.70;;;10.80;99.90;;;;;;5095161;28;20710;-91
2024/03/04 10:02:46;;;;;;;11.13;7.83;;;10.90;99.90;;;;;;5095702;28;20180;-90
2024/03/04 10:05:14;;;;;;;9.87;8.07;;;11.10;99.90;;;;;;5095353;28;20259;-91
2024/03/04 10:07:40;;;;;;;8.40;7.50;;;10.90;99.90;;;;;;5095685;28;20203;-90
2024/03/04 10:10:10;;;;;;;10.07;7.90;;;11.00;99.90;;;;;;5095710;28;20210;-90
2024/03/04 10:12:36;;;;;;;12.73;8.30;;;11.00;99.90;;;;;;5095691;28;20184;-90
2024/03/04 10:15:09;;;;;;;11.00;8.13;;;11.10;99.90;;;;;;5096853;28;20688;-90
2024/03/04 10:17:37;;;;;;;9.63;7.93;;;11.30;99.90;;;;;;5095615;28;20180;-91
2024/03/04 10:20:05;;;;;;;12.23;7.83;;;11.40;99.90;;;;;;5101690;28;20161;-91
2024/03/04 10:22:39;;;;;;;10.20;8.43;;;11.50;99.90;;;;;;5117708;28;20191;-91
2024/03/04 10:25:07;;;;;;;10.33;8.10;;;11.20;99.90;;;;;;5106302;28;20256;-91
2024/03/04 10:27:38;;;;;;;10.57;8.03;;;11.10;99.90;;;;;;5105471;28;20187;-92
2024/03/04 10:33:25;;;;;;;11.37;7.53;;;11.50;99.90;;;;;;5097250;28;20175;-91
2024/03/04 10:36:19;;;;;;;9.87;7.87;;;11.70;99.90;;;;;;5094848;28;20172;-92
2024/03/04 10:38:49;;;;;;;8.87;6.43;;;11.90;99.90;;;;;;5095462;28;20233;-92
2024/03/04 10:41:19;;;;;;;8.73;7.23;;;11.90;99.90;;;;;;5095789;28;20199;-91
2024/03/04 10:43:45;;;;;;;7.53;5.30;;;11.70;99.90;;;;;;5096635;28;20183;-92
2024/03/04 10:46:11;;;;;;;12.43;7.20;;;11.90;99.90;;;;;;5096588;28;20199;-92
2024/03/04 10:48:47;;;;;;;10.90;7.47;;;11.70;99.90;;;;;;5114967;28;20192;-91
2024/03/04 10:51:17;;;;;;;9.63;6.10;;;11.60;99.90;;;;;;5115258;28;20168;-90
2024/03/04 10:53:45;;;;;;;9.97;5.57;;;11.50;99.90;;;;;;5097559;28;20178;-91
2024/03/04 10:56:15;;;;;;;5.50;4.03;;;11.50;99.90;;;;;;5095698;28;20258;-92
2024/03/04 10:58:45;;;;;;;5.63;4.90;;;11.60;99.90;;;;;;5095233;28;20703;-90
2024/03/04 11:01:19;;;;;;;4.77;3.77;;;11.60;99.90;;;;;;5095727;28;20217;-91
2024/03/04 11:03:57;;;;;;;6.23;3.77;;;11.50;99.90;;;;;;5095276;28;20199;-91
2024/03/04 11:06:24;;;;;;;7.53;4.60;;;11.30;99.90;;;;;;5094792;28;20171;-90
2024/03/04 11:08:56;;;;;;;5.93;4.80;;;11.30;99.90;;;;;;5094764;28;20285;-91
2024/03/04 11:11:38;;;;;;;7.40;4.73;;;11.20;99.90;;;;;;5095278;28;20225;-91
2024/03/04 11:14:14;;;;;;;8.20;5.30;;;11.40;99.90;;;;;;5097292;28;20187;-90
2024/03/04 11:16:51;;;;;;;7.47;5.13;;;11.40;99.90;;;;;;5098681;28;20581;-91
2024/03/04 11:19:41;;;;;;;8.53;5.50;;;11.40;99.90;;;;;;5095374;28;20171;-91
2024/03/04 11:22:07;;;;;;;6.73;4.97;;;11.50;99.90;;;;;;5094133;28;20180;-90
2024/03/04 11:24:34;;;;;;;7.57;4.87;;;11.50;99.90;;;;;;5095907;28;20640;-90
2024/03/04 11:27:01;;;;;;;8.27;4.63;;;11.50;99.90;;;;;;5094733;28;20211;-89
2024/03/04 11:29:26;;;;;;;7.57;5.03;;;11.60;99.90;;;;;;5095421;28;20215;-88
2024/03/04 11:31:55;;;;;;;7.10;5.90;;;11.40;99.90;;;;;;5094009;28;20195;-92
2024/03/04 11:34:21;;;;;;;7.33;5.47;;;11.40;99.90;;;;;;5093549;28;20169;-88
2024/03/04 11:36:50;;;;;;;10.73;5.70;;;11.70;99.90;;;;;;5093649;28;20181;-90
2024/03/04 11:39:20;;;;;;;8.93;5.80;;;11.90;99.90;;;;;;5092927;28;20189;-87
2024/03/04 11:41:48;;;;;;;6.93;5.03;;;12.00;99.90;;;;;;5089596;28;20229;-86
2024/03/04 11:44:26;;;;;;;7.63;5.60;;;12.10;99.90;;;;;;5081590;28;20179;-92
2024/03/04 11:46:56;;;;;;;8.37;5.40;;;12.10;99.90;;;;;;5073433;28;20180;-90
2024/03/04 11:49:27;;;;;;;8.93;5.40;;;11.90;99.90;;;;;;5074655;28;20204;-92
2024/03/04 11:52:20;;;;;;;7.20;5.03;;;11.90;99.90;;;;;;5087415;28;20172;-94
2024/03/04 11:54:47;;;;;;;6.90;4.90;;;11.90;99.90;;;;;;5092846;28;20693;-90
2024/03/04 11:57:14;;;;;;;6.37;4.83;;;12.00;99.90;;;;;;5093523;28;20169;-92
2024/03/04 11:59:41;;;;;;;7.37;5.10;;;11.90;99.90;;;;;;5096638;28;20259;-83
2024/03/04 12:02:08;;;;;;;7.90;4.70;;;11.90;99.90;;;;;;5096100;28;20198;-92
2024/03/04 12:04:35;;;;;;;7.63;4.97;;;12.20;99.90;;;;;;5095387;28;20174;-87
2024/03/04 12:07:02;;;;;;;7.00;4.80;;;12.50;99.90;;;;;;5091389;28;20669;-87
2024/03/04 12:09:28;;;;;;;8.73;4.83;;;12.80;99.90;;;;;;5092836;28;20202;-90
2024/03/04 12:11:55;;;;;;;7.13;4.53;;;13.00;99.90;;;;;;5093317;28;20226;-91
2024/03/04 12:14:21;;;;;;;7.30;4.00;;;13.00;99.90;;;;;;5092885;28;20174;-86
2024/03/04 12:16:46;;;;;;;5.97;4.00;;;13.10;99.90;;;;;;5092166;28;20188;-89
2024/03/04 12:19:12;;;;;;;5.87;4.33;;;13.30;99.90;;;;;;5084112;28;20626;-87
2024/03/04 12:21:38;;;;;;;6.40;4.70;;;13.40;99.90;;;;;;5072757;28;20175;-92
2024/03/04 12:24:03;;;;;;;6.40;4.00;;;13.30;99.90;;;;;;5073265;28;20172;-88
2024/03/04 12:26:29;;;;;;;5.63;4.27;;;13.20;99.90;;;;;;5071609;28;20168;-89
2024/03/04 12:28:58;;;;;;;8.03;4.63;;;13.10;99.90;;;;;;5078903;28;20207;-91
2024/03/04 12:31:25;;;;;;;7.77;4.70;;;13.10;99.90;;;;;;5088795;28;20171;-89
2024/03/04 12:33:52;;;;;;;8.50;5.40;;;13.20;99.90;;;;;;5088806;28;20319;-90
2024/03/04 12:36:18;;;;;;;9.13;5.43;;;13.20;99.90;;;;;;5088757;28;20257;-90
2024/03/04 12:38:45;;;;;;;8.33;5.03;;;13.20;99.90;;;;;;5107456;28;20179;-89
2024/03/04 12:41:21;;;;;;;6.43;4.60;;;13.30;99.90;;;;;;5107839;28;20189;-91
2024/03/04 12:43:48;;;;;;;7.43;4.23;;;13.50;99.90;;;;;;5092954;28;20226;-89
2024/03/04 12:46:21;;;;;;;6.27;4.43;;;13.70;99.90;;;;;;5090391;28;20255;-91
2024/03/04 12:48:47;;;;;;;5.53;3.60;;;13.80;99.90;;;;;;5090374;28;20214;-90